Time;durP1;ratioP1;P1;durP2;ratioP2;P2;SDS_P1;SDS_P2;PMS_P1;PMS_P2;Temp;Humidity;BMP_temperature;BMP_pressure;BME280_temperature;BME280_humidity;BME280_pressure;Samples;Min_cycle;Max_cycle;Signal;HPM_P1;HPM_P2
2021/10/05 00:00:44;;;;;;;1.33;0.00;;;;;;;;;;4842602;29;20045;-75
2021/10/05 00:03:11;;;;;;;0.10;0.10;;;;;;;;;;4868247;29;20101;-75
2021/10/05 00:05:39;;;;;;;0.55;0.10;;;;;;;;;;4857066;29;20052;-75
2021/10/05 00:08:06;;;;;;;0.35;0.03;;;;;;;;;;4842633;29;20427;-75
2021/10/05 00:10:33;;;;;;;0.10;0.00;;;;;;;;;;4855019;29;20101;-75
2021/10/05 00:13:01;;;;;;;0.15;0.08;;;;;;;;;;4858193;29;20060;-75
2021/10/05 00:15:28;;;;;;;0.30;0.10;;;;;;;;;;4879947;29;20492;-75
2021/10/05 00:17:55;;;;;;;0.22;0.03;;;;;;;;;;4861633;29;20110;-75
2021/10/05 00:20:23;;;;;;;0.35;0.00;;;;;;;;;;4858321;29;20037;-75
2021/10/05 00:22:50;;;;;;;0.47;0.00;;;;;;;;;;4863648;29;20069;-75
2021/10/05 00:25:19;;;;;;;0.05;0.05;;;;;;;;;;4848481;29;20069;-75
2021/10/05 00:27:46;;;;;;;0.10;0.03;;;;;;;;;;4867022;29;20162;-75
2021/10/05 00:30:14;;;;;;;0.20;0.10;;;;;;;;;;4864798;29;20069;-75
2021/10/05 00:32:41;;;;;;;0.63;0.10;;;;;;;;;;4854150;29;20514;-75
2021/10/05 00:35:08;;;;;;;0.20;0.10;;;;;;;;;;4866464;29;21679;-75
2021/10/05 00:37:36;;;;;;;0.10;0.03;;;;;;;;;;4870191;29;20048;-75
2021/10/05 00:40:04;;;;;;;0.20;0.10;;;;;;;;;;4865873;29;20045;-75
2021/10/05 00:42:32;;;;;;;0.20;0.00;;;;;;;;;;4865342;29;20428;-75
2021/10/05 00:44:59;;;;;;;0.13;0.10;;;;;;;;;;4869548;29;20497;-75
2021/10/05 00:47:26;;;;;;;0.10;0.10;;;;;;;;;;4842933;29;20053;-75
2021/10/05 00:49:54;;;;;;;0.65;0.10;;;;;;;;;;4863953;29;20037;-75
2021/10/05 00:52:22;;;;;;;0.17;0.10;;;;;;;;;;4866971;29;20117;-75
2021/10/05 00:54:49;;;;;;;1.63;0.20;;;;;;;;;;4851263;29;20439;-75
2021/10/05 00:57:17;;;;;;;0.03;0.00;;;;;;;;;;4870161;29;20037;-75
2021/10/05 00:59:44;;;;;;;0.10;0.03;;;;;;;;;;4865339;29;20101;-75
2021/10/05 01:02:13;;;;;;;0.20;0.10;;;;;;;;;;4865521;29;20128;-75
2021/10/05 01:04:42;;;;;;;0.70;0.20;;;;;;;;;;4860222;29;20161;-75
2021/10/05 01:07:14;;;;;;;0.40;0.10;;;;;;;;;;4865879;29;20049;-75
2021/10/05 01:09:42;;;;;;;0.28;0.10;;;;;;;;;;4863995;29;20041;-75
2021/10/05 01:12:09;;;;;;;0.70;0.10;;;;;;;;;;4854394;29;20491;-76
2021/10/05 01:14:36;;;;;;;0.43;0.20;;;;;;;;;;4858921;29;20045;-76
2021/10/05 01:17:04;;;;;;;0.10;0.10;;;;;;;;;;4858947;29;20120;-75
2021/10/05 01:19:32;;;;;;;0.20;0.03;;;;;;;;;;4844062;29;20089;-76
2021/10/05 01:22:00;;;;;;;0.20;0.10;;;;;;;;;;4877229;29;20101;-76
2021/10/05 01:24:28;;;;;;;0.20;0.10;;;;;;;;;;4867809;29;20049;-75
2021/10/05 01:26:56;;;;;;;0.73;0.10;;;;;;;;;;4876514;29;20140;-75
2021/10/05 01:29:27;;;;;;;0.28;0.10;;;;;;;;;;4845306;29;20083;-76
2021/10/05 01:31:56;;;;;;;0.28;0.10;;;;;;;;;;4880982;29;20071;-75
2021/10/05 01:34:24;;;;;;;0.10;0.10;;;;;;;;;;4883974;29;20104;-76
2021/10/05 01:36:53;;;;;;;0.38;0.10;;;;;;;;;;4864759;29;20472;-76
2021/10/05 01:39:24;;;;;;;0.43;0.20;;;;;;;;;;4864959;29;20117;-76
2021/10/05 01:41:53;;;;;;;0.30;0.10;;;;;;;;;;4874132;29;20064;-76
2021/10/05 01:44:20;;;;;;;0.50;0.10;;;;;;;;;;4878889;29;20041;-76
2021/10/05 01:46:49;;;;;;;0.08;0.00;;;;;;;;;;4853452;29;20047;-76
2021/10/05 01:49:18;;;;;;;0.63;0.10;;;;;;;;;;4884197;29;20087;-76
2021/10/05 01:51:46;;;;;;;0.30;0.10;;;;;;;;;;4864118;29;20076;-75
2021/10/05 01:54:13;;;;;;;0.15;0.10;;;;;;;;;;4882409;29;20582;-76
2021/10/05 01:56:41;;;;;;;0.20;0.10;;;;;;;;;;4865123;29;20548;-76
2021/10/05 01:59:09;;;;;;;0.00;0.00;;;;;;;;;;4864082;29;20053;-75
2021/10/05 02:01:38;;;;;;;0.00;0.00;;;;;;;;;;4863868;29;20480;-76
2021/10/05 02:04:07;;;;;;;0.47;0.10;;;;;;;;;;4880990;29;20048;-76
2021/10/05 02:06:34;;;;;;;0.10;0.10;;;;;;;;;;4863860;29;20072;-76
2021/10/05 02:09:03;;;;;;;0.20;0.10;;;;;;;;;;4874522;29;20101;-76
2021/10/05 02:11:30;;;;;;;0.20;0.00;;;;;;;;;;4867077;29;20417;-76
2021/10/05 02:13:58;;;;;;;0.28;0.08;;;;;;;;;;4863926;29;20041;-76
2021/10/05 02:16:25;;;;;;;0.10;0.10;;;;;;;;;;4845306;29;20080;-76
2021/10/05 02:18:54;;;;;;;0.35;0.10;;;;;;;;;;4881955;29;20122;-76
2021/10/05 02:21:21;;;;;;;0.10;0.10;;;;;;;;;;4861193;29;20045;-76
2021/10/05 02:26:34;;;;;;;0.17;0.10;;;;;;;;;;4865023;29;20085;-76
2021/10/05 02:29:02;;;;;;;1.05;0.10;;;;;;;;;;4864364;29;20140;-76
2021/10/05 02:31:29;;;;;;;0.15;0.10;;;;;;;;;;4863644;29;20050;-76
2021/10/05 02:33:57;;;;;;;0.40;0.10;;;;;;;;;;4859562;29;20057;-76
2021/10/05 02:36:24;;;;;;;0.75;0.10;;;;;;;;;;4870436;29;20041;-75
2021/10/05 02:38:52;;;;;;;0.22;0.13;;;;;;;;;;4871115;29;20045;-76
2021/10/05 02:41:20;;;;;;;0.47;0.20;;;;;;;;;;4867745;29;20048;-76
2021/10/05 02:43:47;;;;;;;0.32;0.10;;;;;;;;;;4861573;29;20061;-76
2021/10/05 02:46:14;;;;;;;0.30;0.10;;;;;;;;;;4859927;29;20101;-76
2021/10/05 02:48:42;;;;;;;0.17;0.17;;;;;;;;;;4859920;29;20049;-76
2021/10/05 02:51:09;;;;;;;1.33;0.10;;;;;;;;;;4860018;29;20056;-75
2021/10/05 02:53:36;;;;;;;0.10;0.10;;;;;;;;;;4869292;29;20041;-76
2021/10/05 02:56:04;;;;;;;0.10;0.10;;;;;;;;;;4844512;29;20084;-75
2021/10/05 02:58:31;;;;;;;0.05;0.05;;;;;;;;;;4860036;29;20057;-76
2021/10/05 03:00:59;;;;;;;0.30;0.13;;;;;;;;;;4860392;29;20034;-76
2021/10/05 03:03:26;;;;;;;0.95;0.10;;;;;;;;;;4858359;29;20037;-75
2021/10/05 03:05:53;;;;;;;0.20;0.10;;;;;;;;;;4858159;29;20057;-76
2021/10/05 03:08:24;;;;;;;0.30;0.13;;;;;;;;;;4854919;29;20048;-76
2021/10/05 03:10:51;;;;;;;0.35;0.10;;;;;;;;;;4832994;29;20049;-76
2021/10/05 03:13:18;;;;;;;0.30;0.10;;;;;;;;;;4858740;29;20481;-76
2021/10/05 03:15:47;;;;;;;0.55;0.10;;;;;;;;;;4829431;29;20088;-76
2021/10/05 03:18:15;;;;;;;0.20;0.10;;;;;;;;;;4859372;29;20125;-76
2021/10/05 03:20:43;;;;;;;0.10;0.10;;;;;;;;;;4860510;29;20063;-76
2021/10/05 03:23:10;;;;;;;0.22;0.20;;;;;;;;;;4854070;29;20048;-75
2021/10/05 03:25:37;;;;;;;0.13;0.10;;;;;;;;;;4848185;29;20116;-76
2021/10/05 03:28:05;;;;;;;0.60;0.13;;;;;;;;;;4865663;29;20141;-76
2021/10/05 03:30:32;;;;;;;0.10;0.10;;;;;;;;;;4860468;29;20049;-76
2021/10/05 03:32:59;;;;;;;0.60;0.10;;;;;;;;;;4861147;29;20050;-76
2021/10/05 03:35:27;;;;;;;0.20;0.08;;;;;;;;;;4843735;29;20122;-76
2021/10/05 03:37:54;;;;;;;0.35;0.10;;;;;;;;;;4856997;29;20041;-76
2021/10/05 03:40:22;;;;;;;0.30;0.20;;;;;;;;;;4868685;29;20478;-76
2021/10/05 03:42:49;;;;;;;0.28;0.10;;;;;;;;;;4862881;29;20053;-76
2021/10/05 03:45:17;;;;;;;0.43;0.10;;;;;;;;;;4860741;29;20052;-76
2021/10/05 03:47:44;;;;;;;0.20;0.10;;;;;;;;;;4843094;29;20101;-76
2021/10/05 03:50:13;;;;;;;0.50;0.10;;;;;;;;;;4859270;29;20041;-76
2021/10/05 03:52:41;;;;;;;1.08;0.22;;;;;;;;;;4858923;29;20452;-76
2021/10/05 03:55:09;;;;;;;0.47;0.20;;;;;;;;;;4859401;29;20053;-76
2021/10/05 03:57:36;;;;;;;0.43;0.20;;;;;;;;;;4858778;29;20125;-76
2021/10/05 04:00:04;;;;;;;0.50;0.20;;;;;;;;;;4858658;29;20080;-76
2021/10/05 04:02:31;;;;;;;0.40;0.10;;;;;;;;;;4856079;29;20117;-76
2021/10/05 04:04:59;;;;;;;0.20;0.10;;;;;;;;;;4846913;29;20045;-76
2021/10/05 04:07:26;;;;;;;0.40;0.20;;;;;;;;;;4862593;29;20041;-76
2021/10/05 04:09:54;;;;;;;1.10;0.17;;;;;;;;;;4864024;29;20409;-76
2021/10/05 04:12:21;;;;;;;0.80;0.20;;;;;;;;;;4861276;29;20074;-76
2021/10/05 04:14:50;;;;;;;0.65;0.20;;;;;;;;;;4858571;29;20109;-76
2021/10/05 04:17:18;;;;;;;0.82;0.30;;;;;;;;;;4861744;29;20042;-76
2021/10/05 04:19:45;;;;;;;0.85;0.30;;;;;;;;;;4866725;29;20148;-75
2021/10/05 04:22:12;;;;;;;0.20;0.10;;;;;;;;;;4846429;29;20045;-76
2021/10/05 04:24:40;;;;;;;0.50;0.20;;;;;;;;;;4827723;29;20049;-76
2021/10/05 04:27:10;;;;;;;0.40;0.10;;;;;;;;;;4857394;29;20573;-76
2021/10/05 04:29:38;;;;;;;0.52;0.20;;;;;;;;;;4861866;29;20125;-76
2021/10/05 04:32:06;;;;;;;0.73;0.20;;;;;;;;;;4858893;29;20483;-76
2021/10/05 04:34:34;;;;;;;0.20;0.13;;;;;;;;;;4881632;29;20416;-76
2021/10/05 04:37:02;;;;;;;0.30;0.20;;;;;;;;;;4853405;29;20120;-76
2021/10/05 04:39:29;;;;;;;0.93;0.20;;;;;;;;;;4879902;29;20068;-76
2021/10/05 04:41:56;;;;;;;0.20;0.10;;;;;;;;;;4875885;29;20055;-76
2021/10/05 04:44:24;;;;;;;0.50;0.20;;;;;;;;;;4848276;29;20119;-76
2021/10/05 04:46:51;;;;;;;0.35;0.20;;;;;;;;;;4859122;29;20045;-76
2021/10/05 04:49:18;;;;;;;0.30;0.20;;;;;;;;;;4873814;29;20066;-76
2021/10/05 04:51:46;;;;;;;0.47;0.20;;;;;;;;;;4844293;29;20053;-76
2021/10/05 04:54:13;;;;;;;0.30;0.20;;;;;;;;;;4861110;29;20050;-76
2021/10/05 04:56:41;;;;;;;0.40;0.20;;;;;;;;;;4869482;29;20033;-81
2021/10/05 04:59:08;;;;;;;1.58;0.32;;;;;;;;;;4855232;29;20037;-81
2021/10/05 05:01:35;;;;;;;0.82;0.22;;;;;;;;;;4845098;29;20040;-81
2021/10/05 05:04:03;;;;;;;0.57;0.20;;;;;;;;;;4849410;29;20045;-82
2021/10/05 05:06:31;;;;;;;0.75;0.30;;;;;;;;;;4847702;29;20112;-81
2021/10/05 05:08:58;;;;;;;0.52;0.30;;;;;;;;;;4866216;29;20110;-76
2021/10/05 05:11:25;;;;;;;0.50;0.20;;;;;;;;;;4872247;29;20094;-76
2021/10/05 05:13:53;;;;;;;1.02;0.25;;;;;;;;;;4879992;29;20442;-78
2021/10/05 05:16:20;;;;;;;0.45;0.20;;;;;;;;;;4861601;29;20101;-78
2021/10/05 05:18:47;;;;;;;0.85;0.20;;;;;;;;;;4871586;29;20053;-81
2021/10/05 05:21:15;;;;;;;0.80;0.22;;;;;;;;;;4841388;29;20049;-80
2021/10/05 05:23:42;;;;;;;0.73;0.22;;;;;;;;;;4851639;29;20545;-78
2021/10/05 05:26:09;;;;;;;1.30;0.28;;;;;;;;;;4832900;29;20046;-77
2021/10/05 05:28:38;;;;;;;0.90;0.32;;;;;;;;;;4860349;29;20080;-81
2021/10/05 05:31:05;;;;;;;1.35;0.40;;;;;;;;;;4853455;29;20496;-82
2021/10/05 05:33:33;;;;;;;0.60;0.40;;;;;;;;;;4857080;29;20061;-81
2021/10/05 05:36:00;;;;;;;0.50;0.30;;;;;;;;;;4850465;29;20045;-80
2021/10/05 05:38:28;;;;;;;0.85;0.30;;;;;;;;;;4839232;29;20053;-77
2021/10/05 05:40:56;;;;;;;0.70;0.22;;;;;;;;;;4865794;29;20049;-82
2021/10/05 05:43:23;;;;;;;0.88;0.40;;;;;;;;;;4847538;29;20444;-78
2021/10/05 05:45:50;;;;;;;0.90;0.30;;;;;;;;;;4863229;29;20522;-81
2021/10/05 05:48:18;;;;;;;0.85;0.30;;;;;;;;;;4837479;29;20081;-81
2021/10/05 05:50:45;;;;;;;0.50;0.30;;;;;;;;;;4823435;29;20057;-82
2021/10/05 05:53:13;;;;;;;1.17;0.40;;;;;;;;;;4838671;29;20559;-79
2021/10/05 05:55:40;;;;;;;1.17;0.32;;;;;;;;;;4850922;29;20400;-79
2021/10/05 05:58:08;;;;;;;0.85;0.32;;;;;;;;;;4844378;29;20045;-82
2021/10/05 06:00:36;;;;;;;0.65;0.30;;;;;;;;;;4855116;29;20049;-80
2021/10/05 06:03:03;;;;;;;1.05;0.40;;;;;;;;;;4845141;29;20037;-78
2021/10/05 06:05:31;;;;;;;1.13;0.40;;;;;;;;;;4842002;29;20060;-78
2021/10/05 06:07:59;;;;;;;1.27;0.45;;;;;;;;;;4840495;29;20134;-77
2021/10/05 06:10:27;;;;;;;0.93;0.40;;;;;;;;;;4864927;29;20086;-77
2021/10/05 06:12:54;;;;;;;1.17;0.70;;;;;;;;;;4852330;29;20041;-77
2021/10/05 06:15:22;;;;;;;1.40;0.60;;;;;;;;;;4874703;29;20041;-77
2021/10/05 06:17:50;;;;;;;1.55;0.57;;;;;;;;;;4860307;29;20053;-77
2021/10/05 06:20:20;;;;;;;1.20;0.47;;;;;;;;;;4822361;29;20081;-77
2021/10/05 06:22:48;;;;;;;2.00;0.45;;;;;;;;;;4868680;29;20462;-77
2021/10/05 06:25:17;;;;;;;0.70;0.35;;;;;;;;;;4825791;29;20068;-77
2021/10/05 06:27:44;;;;;;;1.80;0.68;;;;;;;;;;4855568;29;20549;-76
2021/10/05 06:30:13;;;;;;;1.33;0.60;;;;;;;;;;4851440;29;20053;-77
2021/10/05 06:32:41;;;;;;;1.30;0.60;;;;;;;;;;4846685;29;20041;-77
2021/10/05 06:35:09;;;;;;;1.27;0.55;;;;;;;;;;4849781;29;20106;-77
2021/10/05 06:37:38;;;;;;;0.80;0.40;;;;;;;;;;4853120;29;20041;-77
2021/10/05 06:40:07;;;;;;;1.02;0.40;;;;;;;;;;4866247;29;20038;-76
2021/10/05 06:42:37;;;;;;;1.15;0.50;;;;;;;;;;4862917;29;20058;-77
2021/10/05 06:45:05;;;;;;;2.22;0.60;;;;;;;;;;4839953;29;20445;-78
2021/10/05 06:47:33;;;;;;;0.95;0.50;;;;;;;;;;4853617;29;20121;-77
2021/10/05 06:50:03;;;;;;;1.10;0.40;;;;;;;;;;4864669;29;20488;-77
2021/10/05 06:52:30;;;;;;;1.38;0.57;;;;;;;;;;4851575;29;20491;-77
2021/10/05 06:54:58;;;;;;;0.75;0.35;;;;;;;;;;4854893;29;20049;-77
2021/10/05 06:57:26;;;;;;;0.88;0.35;;;;;;;;;;4865635;29;20140;-77
2021/10/05 06:59:53;;;;;;;0.93;0.57;;;;;;;;;;4822954;29;20150;-77
2021/10/05 07:02:20;;;;;;;1.35;0.57;;;;;;;;;;4857473;29;20045;-77
2021/10/05 07:04:48;;;;;;;1.20;0.40;;;;;;;;;;4852854;29;20037;-78
2021/10/05 07:07:15;;;;;;;1.35;0.60;;;;;;;;;;4851192;29;20069;-77
2021/10/05 07:09:42;;;;;;;0.65;0.30;;;;;;;;;;4840857;29;20151;-77
2021/10/05 07:12:10;;;;;;;1.73;0.50;;;;;;;;;;4856138;29;20054;-77
2021/10/05 07:14:37;;;;;;;0.68;0.30;;;;;;;;;;4848371;29;20562;-77
2021/10/05 07:17:06;;;;;;;0.75;0.30;;;;;;;;;;4853100;29;20046;-77
2021/10/05 07:19:48;;;;;;;1.30;0.60;;;;;;;;;;4839431;29;20046;-77
2021/10/05 07:22:15;;;;;;;1.73;0.50;;;;;;;;;;4838605;29;20050;-76
2021/10/05 07:24:42;;;;;;;2.22;0.40;;;;;;;;;;4810458;29;20120;-77
2021/10/05 07:27:10;;;;;;;0.63;0.32;;;;;;;;;;4838586;29;20436;-77
2021/10/05 07:29:37;;;;;;;1.45;0.45;;;;;;;;;;4851388;29;20045;-77
2021/10/05 07:32:04;;;;;;;1.92;0.35;;;;;;;;;;4841112;29;20093;-77
2021/10/05 07:34:32;;;;;;;1.75;0.60;;;;;;;;;;4846856;29;20141;-77
2021/10/05 07:36:59;;;;;;;1.23;0.50;;;;;;;;;;4855111;29;20102;-78
2021/10/05 07:39:26;;;;;;;2.13;0.55;;;;;;;;;;4852794;29;20164;-77
2021/10/05 07:41:54;;;;;;;1.33;0.50;;;;;;;;;;4856172;29;20134;-77
2021/10/05 07:44:21;;;;;;;1.10;0.50;;;;;;;;;;4837957;29;20089;-77
2021/10/05 07:46:49;;;;;;;1.10;0.40;;;;;;;;;;4850868;29;20042;-76
2021/10/05 07:49:16;;;;;;;1.25;0.50;;;;;;;;;;4837102;29;20052;-77
2021/10/05 07:51:44;;;;;;;0.93;0.50;;;;;;;;;;4852728;29;20121;-77
2021/10/05 07:54:11;;;;;;;3.65;0.55;;;;;;;;;;4854722;29;20137;-77
2021/10/05 07:56:38;;;;;;;2.92;0.98;;;;;;;;;;4854738;29;20061;-77
2021/10/05 07:59:05;;;;;;;1.17;0.47;;;;;;;;;;4819799;29;20530;-77
2021/10/05 08:01:36;;;;;;;0.82;0.40;;;;;;;;;;4851464;29;20098;-79
2021/10/05 08:04:04;;;;;;;1.02;0.45;;;;;;;;;;4856237;29;20053;-79
2021/10/05 08:06:32;;;;;;;1.13;0.50;;;;;;;;;;4843902;29;20144;-80
2021/10/05 08:08:59;;;;;;;1.15;0.50;;;;;;;;;;4867112;29;20049;-80
2021/10/05 08:11:26;;;;;;;1.27;0.60;;;;;;;;;;4873817;29;20417;-81
2021/10/05 08:13:54;;;;;;;1.20;0.60;;;;;;;;;;4844832;29;20056;-80
2021/10/05 08:16:30;;;;;;;1.38;0.50;;;;;;;;;;4861747;29;20052;-80
2021/10/05 08:19:01;;;;;;;2.08;0.95;;;;;;;;;;4848028;29;20087;-82
2021/10/05 08:21:30;;;;;;;1.40;0.63;;;;;;;;;;4876483;29;20037;-82
2021/10/05 08:23:58;;;;;;;1.85;0.50;;;;;;;;;;4863901;29;20044;-82
2021/10/05 08:26:25;;;;;;;1.00;0.40;;;;;;;;;;4869811;29;20065;-82
2021/10/05 08:28:52;;;;;;;2.33;0.73;;;;;;;;;;4859494;29;20048;-82
2021/10/05 08:31:20;;;;;;;1.50;0.70;;;;;;;;;;4877225;29;20050;-82
2021/10/05 08:33:49;;;;;;;1.33;0.38;;;;;;;;;;4868211;29;20393;-81
2021/10/05 08:36:19;;;;;;;2.15;0.65;;;;;;;;;;4847655;29;20068;-82
2021/10/05 08:38:47;;;;;;;2.42;0.88;;;;;;;;;;4862069;29;20045;-81
2021/10/05 08:41:14;;;;;;;1.83;0.68;;;;;;;;;;4855680;29;20049;-82
2021/10/05 08:43:42;;;;;;;1.35;0.47;;;;;;;;;;4851588;29;20086;-81
2021/10/05 08:46:10;;;;;;;1.85;0.80;;;;;;;;;;4861199;29;20094;-81
2021/10/05 08:48:38;;;;;;;1.58;0.60;;;;;;;;;;4862436;29;20109;-80
2021/10/05 08:51:07;;;;;;;1.40;0.70;;;;;;;;;;4860521;29;20524;-81
2021/10/05 08:53:36;;;;;;;1.70;0.60;;;;;;;;;;4873755;29;20049;-82
2021/10/05 08:56:08;;;;;;;2.78;0.88;;;;;;;;;;4862664;29;20101;-82
2021/10/05 08:58:36;;;;;;;2.47;0.70;;;;;;;;;;4855276;29;20069;-82
2021/10/05 09:01:11;;;;;;;2.53;0.63;;;;;;;;;;4849413;29;20061;-81
2021/10/05 09:03:47;;;;;;;1.55;0.68;;;;;;;;;;4876935;29;20041;-81
2021/10/05 09:06:16;;;;;;;2.17;0.60;;;;;;;;;;4852723;29;20613;-83
2021/10/05 09:08:44;;;;;;;1.60;0.70;;;;;;;;;;4837285;29;20057;-82
2021/10/05 09:11:13;;;;;;;1.70;0.80;;;;;;;;;;4872763;29;20053;-82
2021/10/05 09:13:42;;;;;;;1.60;0.70;;;;;;;;;;4859941;29;20099;-82
2021/10/05 09:16:26;;;;;;;2.20;0.95;;;;;;;;;;4859783;29;20454;-81
2021/10/05 09:19:00;;;;;;;3.42;1.23;;;;;;;;;;4857153;29;20053;-81
2021/10/05 09:21:29;;;;;;;2.90;0.60;;;;;;;;;;4875788;29;20137;-83
2021/10/05 09:24:07;;;;;;;1.08;0.65;;;;;;;;;;4861251;29;20049;-82
2021/10/05 09:26:36;;;;;;;2.15;0.88;;;;;;;;;;4864450;29;20483;-81
2021/10/05 09:29:16;;;;;;;3.40;0.80;;;;;;;;;;4859241;29;20120;-81
2021/10/05 09:31:51;;;;;;;1.35;0.68;;;;;;;;;;4855239;29;20045;-81
2021/10/05 09:34:19;;;;;;;2.30;0.55;;;;;;;;;;4853785;29;20128;-81
2021/10/05 09:36:46;;;;;;;1.77;0.88;;;;;;;;;;4854580;29;20108;-81
2021/10/05 09:39:13;;;;;;;2.10;0.80;;;;;;;;;;4874475;29;20439;-82
2021/10/05 09:41:41;;;;;;;1.17;0.60;;;;;;;;;;4872858;29;20486;-81
2021/10/05 09:44:09;;;;;;;0.93;0.52;;;;;;;;;;4854638;29;20444;-80
2021/10/05 09:46:37;;;;;;;2.00;0.77;;;;;;;;;;4872046;29;20079;-80
2021/10/05 09:49:09;;;;;;;1.80;0.82;;;;;;;;;;4866724;29;20102;-80
2021/10/05 09:51:38;;;;;;;1.45;0.50;;;;;;;;;;4869859;29;20522;-79
2021/10/05 09:54:05;;;;;;;0.80;0.40;;;;;;;;;;4878754;29;20082;-81
2021/10/05 09:56:32;;;;;;;1.40;0.40;;;;;;;;;;4845162;29;20478;-79
2021/10/05 09:59:00;;;;;;;1.95;0.60;;;;;;;;;;4866874;29;20053;-80
2021/10/05 10:01:27;;;;;;;1.15;0.40;;;;;;;;;;4868232;29;20104;-77
2021/10/05 10:03:55;;;;;;;2.65;0.47;;;;;;;;;;4872908;29;20502;-79
2021/10/05 10:06:23;;;;;;;1.40;0.50;;;;;;;;;;4869359;29;20053;-79
2021/10/05 10:08:53;;;;;;;1.10;0.40;;;;;;;;;;4863538;29;20041;-80
2021/10/05 10:11:21;;;;;;;1.10;0.30;;;;;;;;;;4858270;29;20414;-77
2021/10/05 10:13:49;;;;;;;0.93;0.50;;;;;;;;;;4863498;29;20056;-77
2021/10/05 10:16:17;;;;;;;1.90;0.50;;;;;;;;;;4866346;29;20581;-78
2021/10/05 10:18:52;;;;;;;2.38;0.50;;;;;;;;;;4840253;29;20147;-78
2021/10/05 10:21:25;;;;;;;1.13;0.38;;;;;;;;;;4875250;29;20570;-79
2021/10/05 10:24:07;;;;;;;2.38;0.30;;;;;;;;;;4863364;29;20089;-79
2021/10/05 10:26:36;;;;;;;0.80;0.45;;;;;;;;;;4883681;29;20474;-78
2021/10/05 10:29:04;;;;;;;0.75;0.30;;;;;;;;;;4860932;29;20562;-78
2021/10/05 10:31:34;;;;;;;1.17;0.30;;;;;;;;;;4854522;29;20462;-80
2021/10/05 10:34:03;;;;;;;0.93;0.32;;;;;;;;;;4862630;29;20072;-77
2021/10/05 10:36:31;;;;;;;1.13;0.40;;;;;;;;;;4846602;29;20410;-84
2021/10/05 10:39:05;;;;;;;1.25;0.50;;;;;;;;;;4859862;29;20783;-82
2021/10/05 10:41:33;;;;;;;2.40;0.60;;;;;;;;;;4872630;29;20045;-86
2021/10/05 10:44:03;;;;;;;1.88;0.50;;;;;;;;;;4842895;29;20095;-80
2021/10/05 10:46:36;;;;;;;2.17;0.80;;;;;;;;;;4862365;29;20778;-80
2021/10/05 10:49:03;;;;;;;;;;;;;;;;;;4855852;29;20351;-83
2021/10/05 10:51:35;;;;;;;0.75;0.38;;;;;;;;;;4875042;29;19928;-81
2021/10/05 10:54:11;;;;;;;0.52;0.30;;;;;;;;;;4856564;29;20375;-80
2021/10/05 10:56:40;;;;;;;0.50;0.30;;;;;;;;;;4861954;29;20045;-79
2021/10/05 10:59:09;;;;;;;1.00;0.40;;;;;;;;;;4872617;29;20200;-78
2021/10/05 11:01:39;;;;;;;2.72;0.57;;;;;;;;;;4862417;29;20049;-80
2021/10/05 11:04:08;;;;;;;1.05;0.40;;;;;;;;;;4854627;29;20056;-81
2021/10/05 11:06:36;;;;;;;1.35;0.50;;;;;;;;;;4871773;29;20506;-79
2021/10/05 11:09:05;;;;;;;1.98;0.38;;;;;;;;;;4862366;29;20047;-79
2021/10/05 11:11:35;;;;;;;1.75;0.80;;;;;;;;;;4863187;29;20099;-79
2021/10/05 11:14:03;;;;;;;1.05;0.45;;;;;;;;;;4885137;29;20068;-83
2021/10/05 11:16:32;;;;;;;0.80;0.40;;;;;;;;;;4862703;29;20068;-83
2021/10/05 11:19:16;;;;;;;2.47;0.60;;;;;;;;;;4848712;29;20080;-82
2021/10/05 11:21:48;;;;;;;0.95;0.40;;;;;;;;;;4875919;29;20040;-79
2021/10/05 11:24:17;;;;;;;0.73;0.30;;;;;;;;;;4867073;29;20067;-80
2021/10/05 11:26:46;;;;;;;1.38;0.32;;;;;;;;;;4866303;29;20037;-81
2021/10/05 11:29:22;;;;;;;1.90;0.40;;;;;;;;;;4845297;29;20503;-78
2021/10/05 11:31:50;;;;;;;0.95;0.40;;;;;;;;;;4872024;29;20526;-79
2021/10/05 11:34:18;;;;;;;0.75;0.40;;;;;;;;;;4860757;29;20100;-77
2021/10/05 11:36:46;;;;;;;1.00;0.47;;;;;;;;;;4859547;29;20077;-78
2021/10/05 11:39:20;;;;;;;2.38;0.40;;;;;;;;;;4857208;29;20072;-79
2021/10/05 11:41:50;;;;;;;1.80;0.60;;;;;;;;;;4855586;29;20363;-79
2021/10/05 11:44:19;;;;;;;1.88;0.40;;;;;;;;;;4878823;29;20067;-80
2021/10/05 11:47:16;;;;;;;1.23;0.38;;;;;;;;;;4879975;29;20037;-79
2021/10/05 11:49:45;;;;;;;1.00;0.43;;;;;;;;;;4841133;29;20087;-78
2021/10/05 11:52:13;;;;;;;2.67;0.30;;;;;;;;;;4877770;29;20045;-78
2021/10/05 11:54:41;;;;;;;1.08;0.40;;;;;;;;;;4871883;29;20040;-80
2021/10/05 11:57:22;;;;;;;1.00;0.47;;;;;;;;;;4853921;29;20064;-79
2021/10/05 11:59:52;;;;;;;0.90;0.40;;;;;;;;;;4874314;29;20037;-78
2021/10/05 12:02:21;;;;;;;1.10;0.40;;;;;;;;;;4872193;29;20067;-77
2021/10/05 12:04:49;;;;;;;2.05;0.40;;;;;;;;;;4866277;29;20047;-78
2021/10/05 12:07:18;;;;;;;1.55;0.30;;;;;;;;;;4878212;29;20080;-79
2021/10/05 12:10:06;;;;;;;1.35;0.30;;;;;;;;;;4866662;29;20097;-78
2021/10/05 12:12:34;;;;;;;1.17;0.30;;;;;;;;;;4871884;29;20041;-79
2021/10/05 12:15:04;;;;;;;0.82;0.30;;;;;;;;;;4869195;29;20073;-78
2021/10/05 12:18:06;;;;;;;0.30;0.20;;;;;;;;;;4873355;29;20068;-77
2021/10/05 12:21:05;;;;;;;1.02;0.32;;;;;;;;;;4875199;29;20049;-77
2021/10/05 12:23:32;;;;;;;1.92;0.25;;;;;;;;;;4859845;29;20466;-77
2021/10/05 12:26:07;;;;;;;0.73;0.30;;;;;;;;;;4873931;29;20203;-76
2021/10/05 12:28:35;;;;;;;3.10;0.50;;;;;;;;;;4876581;29;20045;-76
2021/10/05 12:31:12;;;;;;;1.25;0.30;;;;;;;;;;4857544;29;20495;-76
2021/10/05 12:33:39;;;;;;;1.88;0.50;;;;;;;;;;4871219;29;20120;-76
2021/10/05 12:36:07;;;;;;;1.15;0.35;;;;;;;;;;4860656;29;20045;-77
2021/10/05 12:38:37;;;;;;;2.17;0.30;;;;;;;;;;4877784;29;20072;-76
2021/10/05 12:41:09;;;;;;;0.57;0.20;;;;;;;;;;4874133;29;20065;-76
2021/10/05 12:43:37;;;;;;;;;;;;;;;;;;4867304;29;20097;-76
2021/10/05 12:46:08;;;;;;;2.95;0.40;;;;;;;;;;4861225;29;20385;-77
2021/10/05 12:48:40;;;;;;;1.30;0.52;;;;;;;;;;4861651;29;20084;-77
2021/10/05 12:51:10;;;;;;;0.57;0.30;;;;;;;;;;4861280;29;20045;-77
2021/10/05 12:53:38;;;;;;;1.92;0.30;;;;;;;;;;4868254;29;20299;-78
2021/10/05 12:56:06;;;;;;;4.05;0.50;;;;;;;;;;4869316;29;20483;-76
2021/10/05 12:58:33;;;;;;;1.20;0.28;;;;;;;;;;4873647;29;20106;-78
2021/10/05 13:01:01;;;;;;;2.08;0.50;;;;;;;;;;4846584;29;20065;-79
2021/10/05 13:03:29;;;;;;;1.58;0.32;;;;;;;;;;4846812;29;20045;-78
2021/10/05 13:05:56;;;;;;;1.65;0.30;;;;;;;;;;4858695;29;20077;-78
2021/10/05 13:08:24;;;;;;;1.25;0.20;;;;;;;;;;4878102;29;20076;-78
2021/10/05 13:10:51;;;;;;;0.90;0.20;;;;;;;;;;4855059;29;20435;-77
2021/10/05 13:13:19;;;;;;;0.85;0.20;;;;;;;;;;4859424;29;20085;-77
2021/10/05 13:15:46;;;;;;;0.90;0.20;;;;;;;;;;4854228;29;20064;-77
2021/10/05 13:18:14;;;;;;;0.45;0.20;;;;;;;;;;4861603;29;20113;-79
2021/10/05 13:20:41;;;;;;;0.50;0.20;;;;;;;;;;4844302;29;20069;-79
2021/10/05 13:23:09;;;;;;;2.20;0.28;;;;;;;;;;4839711;29;20054;-79
2021/10/05 13:25:36;;;;;;;0.35;0.20;;;;;;;;;;4851523;29;20052;-79
2021/10/05 13:28:03;;;;;;;0.50;0.10;;;;;;;;;;4849323;29;20044;-80
2021/10/05 13:30:31;;;;;;;1.13;0.20;;;;;;;;;;4864152;29;20049;-79
2021/10/05 13:32:58;;;;;;;0.35;0.15;;;;;;;;;;4880961;29;20041;-78
2021/10/05 13:35:26;;;;;;;2.20;0.30;;;;;;;;;;4864515;29;20053;-78
2021/10/05 13:37:53;;;;;;;0.50;0.10;;;;;;;;;;4871453;29;20065;-79
2021/10/05 13:40:23;;;;;;;0.98;0.20;;;;;;;;;;4851057;29;20089;-77
2021/10/05 13:42:52;;;;;;;0.75;0.20;;;;;;;;;;4863923;29;20037;-79
2021/10/05 13:45:20;;;;;;;0.80;0.20;;;;;;;;;;4864471;29;20047;-77
2021/10/05 13:47:48;;;;;;;1.10;0.20;;;;;;;;;;4882362;29;20044;-77
2021/10/05 13:50:16;;;;;;;0.40;0.20;;;;;;;;;;4864048;29;20081;-80
2021/10/05 13:52:44;;;;;;;1.20;0.20;;;;;;;;;;4865934;29;20108;-80
2021/10/05 13:55:12;;;;;;;0.80;0.20;;;;;;;;;;4866029;29;20121;-80
2021/10/05 13:57:40;;;;;;;0.22;0.20;;;;;;;;;;4865163;29;20409;-80
2021/10/05 14:00:07;;;;;;;3.25;0.25;;;;;;;;;;4880274;29;20063;-80
2021/10/05 14:02:35;;;;;;;0.32;0.10;;;;;;;;;;4880754;29;20447;-80
2021/10/05 14:05:03;;;;;;;1.50;0.30;;;;;;;;;;4870141;29;20092;-79
2021/10/05 14:07:31;;;;;;;0.75;0.10;;;;;;;;;;4864698;29;20061;-79
2021/10/05 14:09:58;;;;;;;2.67;0.20;;;;;;;;;;4851968;29;20044;-78
2021/10/05 14:12:26;;;;;;;0.60;0.20;;;;;;;;;;4880807;29;20076;-78
2021/10/05 14:14:54;;;;;;;0.03;0.00;;;;;;;;;;4881172;29;20124;-80
2021/10/05 14:17:21;;;;;;;0.20;0.10;;;;;;;;;;4881434;29;20056;-78
2021/10/05 14:19:49;;;;;;;0.55;0.10;;;;;;;;;;4862666;29;20064;-78
2021/10/05 14:22:17;;;;;;;0.47;0.10;;;;;;;;;;4878207;29;20116;-78
2021/10/05 14:24:46;;;;;;;1.58;0.10;;;;;;;;;;4872124;29;20049;-78
2021/10/05 14:27:13;;;;;;;0.88;0.10;;;;;;;;;;4862624;29;20550;-77
2021/10/05 14:29:41;;;;;;;2.13;0.13;;;;;;;;;;4875498;29;20132;-77
2021/10/05 14:32:10;;;;;;;0.73;0.10;;;;;;;;;;4851022;29;20048;-77
2021/10/05 14:34:38;;;;;;;0.73;0.20;;;;;;;;;;4884297;29;20087;-77
2021/10/05 14:37:05;;;;;;;0.10;0.00;;;;;;;;;;4879623;29;20064;-77
2021/10/05 14:39:33;;;;;;;0.77;0.10;;;;;;;;;;4862706;29;20045;-77
2021/10/05 14:42:00;;;;;;;0.57;0.20;;;;;;;;;;4879764;29;20115;-77
2021/10/05 14:44:29;;;;;;;0.38;0.15;;;;;;;;;;4848187;29;20066;-77
2021/10/05 14:46:56;;;;;;;1.88;0.20;;;;;;;;;;4862779;29;20466;-77
2021/10/05 14:49:27;;;;;;;2.58;0.15;;;;;;;;;;4863272;29;20052;-77
2021/10/05 14:52:13;;;;;;;0.30;0.17;;;;;;;;;;4864804;29;20049;-77
2021/10/05 14:54:41;;;;;;;0.82;0.25;;;;;;;;;;4858885;29;20566;-77